New Windsor, Illinois
Current Conditions -  °F | °C
As of 3:52 PM on Saturday 20 Dec 2014 (Local Time) from KMLI Reporting Station
Haze Haze  
Wind Chill: 29°   Ceiling: 1400
Heat Index: 34°   Visibility: 5mi
Dew Point: 27°   Wind: 6mph
Humidity: 75%   Direction: 130°SE
Pressure: 30.2"   Gusts: NA
Location:  41.2°N, 90.47°W
Report Text: KMLI 202152Z 13005KT 5SM HZ OVC014 01/M03 A3020 RMK AO2 SLP234 T00111028
Loading
Personal Weather Stations






























Interactive Weather Map New forecast layout! Learn more

10-Day Weather Forecast

Advertisements
Track Severe Weather on mobile